KDED/DED METAR and TAF weather

Enter ICAO airport designator
Station Type Date Time Source
KDED METAR 2018/09/21 23:15 UTC NOAA

KDED 212315Z AUTO 08008KT 10SM SCT028 27/22 A3004 RMK AO2


Station Type Date Time Source
KDED Decoded METAR 2018/09/21 23:15 UTC NOAA

Station name not available
Sep 21, 2018 - 07:15 PM EDT / 2018.09.21 2315 UTC
Wind: from the E (080 degrees) at 9 MPH (8 KT):0
Visibility: 10 mile(s):0
Sky conditions: partly cloudy
Temperature: 80 F (27 C)
Dew Point: 71 F (22 C)
Relative Humidity: 74%
Pressure (altimeter): 30.04 in. Hg (1017 hPa)
ob: KDED 212315Z AUTO 08008KT 10SM SCT028 27/22 A3004 RMK AO2
cycle: 23

Station Type Date Time Source
KDED TAF UTC NOAA

Error!


Example: see airport list